Aeroporto :
LOGIN :

Iscrizione | Disclaimer

   EN    FR    IT 

 










Sommario :    VFR   VFR Marginale   IFR   IFR Intensivo   IFR Molto Intensivo
Visibilità : 
Base nubi : 
>= 8 km
>= 3000ft
5 / 8 km
1000 / 3000 ft
1500m / 5 km
500 / 1000 ft
800 / 1500m
200 / 500 ft
< 800m
< 200 ft
Simboli :   Temporali  Nebbia  Neve Forte  Precipitazioni Forti  Vento > 20 kt
SIGMETs :   Varie  Temporali  Ghiacco  Turbolenza  Onda orograficha  Ceneri Vulcaniche






- Altitudine del aeroporto : 146 ft
- Codice IATA : RKE


EKRK - Roskilde Tune

ULTIMO METAR :
  • 201620Z AUTO 09008KT 060V120 4800 RA BR OVC006/// 08/07 Q1017

METARs OBSOLETI :
  • 201550Z AUTO 08006KT 040V110 7000 -RA OVC006/// 07/07 Q1017
  • 201520Z AUTO 03007KT 360V060 8000 -RA OVC007/// 07/06 Q1017
  • 201450Z AUTO 03006KT 9999 -RA OVC009/// 07/06 Q1017
  • 201420Z AUTO 03006KT 010V070 9999 -RA OVC010/// 07/06 Q1018
  • 201350Z AUTO 03005KT 360V070 9000 RA OVC013/// 07/06 Q1018

TAF TAF EKRK
Valido dal 20 a 15 ore il 21 a 00 ore UTC


201409Z 2015/2024 03006KT 4000 RADZ BR BKN006
TEMPO 2015/2018 8000 -RADZ BKN015
BECMG 2016/2018 12012KT



MetMap, La meteo Aeronautica in un colpo d'occhio ! - Copyright ORBIFLY Dicembre 2007 - Disclaimer

ORBIFLY MET'MAP TEAM :

Programmazione e sviluppo : Alexandra Zaïnal
Concezione e sviluppo : Baudouin d'Aumeries
Co-Programmazione e sviluppo : Marc-Olivier Méhu
Supporto tecnico e logistico : Manuel Goepfert
Aiuto per la traduzione : Arnaldo La Scala

Contatto : metmap@orbifly.com




FONTI E CREDITI :

   NOAA